createdAt,value
2023-03-24T00:01:03.669Z,32.57
2023-03-24T00:02:07.381Z,32.63
2023-03-24T00:03:10.831Z,32.74
2023-03-24T00:04:12.872Z,32.72
2023-03-24T00:05:21.732Z,32.72
2023-03-24T00:06:23.684Z,32.64
2023-03-24T00:07:26.184Z,32.74
2023-03-24T00:08:36.545Z,32.63
2023-03-24T00:09:38.657Z,32.72
2023-03-24T00:10:42.614Z,32.67
2023-03-24T00:11:45.435Z,32.60
2023-03-24T00:12:48.647Z,32.68
2023-03-24T00:13:50.927Z,32.69
2023-03-24T00:14:55.707Z,32.75
2023-03-24T00:15:58.576Z,32.68
2023-03-24T00:17:00.575Z,32.56
2023-03-24T00:18:02.460Z,32.92
2023-03-24T00:19:04.934Z,32.77
2023-03-24T00:20:16.074Z,32.57
2023-03-24T00:21:18.360Z,32.60
2023-03-24T00:22:21.294Z,32.51
2023-03-24T00:23:23.571Z,32.59
2023-03-24T00:24:25.514Z,32.99
2023-03-24T00:25:33.833Z,32.69
2023-03-24T00:26:38.544Z,32.72
2023-03-24T00:27:40.387Z,32.56
2023-03-24T00:28:48.989Z,32.62
2023-03-24T00:29:50.887Z,32.49
2023-03-24T00:30:52.771Z,32.67
2023-03-24T00:31:55.292Z,32.65
2023-03-24T00:32:58.996Z,32.73
2023-03-24T00:34:02.918Z,32.65
2023-03-24T00:35:09.798Z,32.70
2023-03-24T00:36:12.622Z,32.64
2023-03-24T00:37:14.495Z,32.64
2023-03-24T00:38:16.368Z,32.64
2023-03-24T00:39:20.537Z,32.53
2023-03-24T00:40:22.622Z,32.64
2023-03-24T00:41:26.951Z,32.57
2023-03-24T00:42:29.340Z,32.58
2023-03-24T00:43:31.650Z,32.64
2023-03-24T00:44:34.338Z,32.52
2023-03-24T00:45:36.270Z,32.70
2023-03-24T00:46:39.003Z,32.57
2023-03-24T00:47:41.409Z,32.72
2023-03-24T00:48:43.308Z,32.48
2023-03-24T00:49:45.163Z,32.68
2023-03-24T00:50:52.100Z,32.58
2023-03-24T00:51:54.023Z,32.62
2023-03-24T00:52:58.179Z,32.72
2023-03-24T00:54:01.864Z,32.66
2023-03-24T00:55:06.530Z,32.63
2023-03-24T00:56:09.137Z,32.65
2023-03-24T00:57:13.007Z,32.46
2023-03-24T00:58:18.199Z,32.70
2023-03-24T00:59:21.331Z,32.62
2023-03-24T01:00:26.224Z,32.50
2023-03-24T01:01:35.406Z,32.55
2023-03-24T01:02:37.885Z,32.48
2023-03-24T01:03:48.145Z,32.64
2023-03-24T01:04:56.413Z,32.55
2023-03-24T01:06:03.991Z,32.67
2023-03-24T01:07:10.711Z,32.74
2023-03-24T01:08:12.917Z,32.63
2023-03-24T01:09:14.732Z,32.59
2023-03-24T01:10:17.136Z,32.47
2023-03-24T01:11:19.114Z,32.63
2023-03-24T01:12:21.759Z,32.66
2023-03-24T01:13:29.734Z,32.45
2023-03-24T01:14:32.903Z,32.46
2023-03-24T01:15:36.528Z,32.49
2023-03-24T01:16:38.932Z,32.55
2023-03-24T01:17:41.095Z,32.60
2023-03-24T01:18:43.030Z,32.56
2023-03-24T01:19:45.339Z,32.61
2023-03-24T01:20:51.449Z,32.53
2023-03-24T01:21:54.476Z,32.53
2023-03-24T01:22:56.322Z,32.52
2023-03-24T01:23:58.133Z,32.51
2023-03-24T01:25:00.799Z,32.51
2023-03-24T01:26:10.563Z,32.59
2023-03-24T01:27:13.261Z,32.44
2023-03-24T01:28:24.721Z,32.50
2023-03-24T01:29:26.580Z,32.55
2023-03-24T01:30:30.515Z,32.59
2023-03-24T01:31:34.101Z,32.50
2023-03-24T01:32:36.230Z,32.64
2023-03-24T01:33:38.736Z,32.51
2023-03-24T01:34:40.675Z,32.41
2023-03-24T01:35:42.649Z,32.80
2023-03-24T01:36:44.630Z,32.60
2023-03-24T01:37:46.645Z,32.60
2023-03-24T01:38:51.402Z,32.43
2023-03-24T01:39:53.342Z,32.58
2023-03-24T01:40:55.480Z,32.24
2023-03-24T01:41:57.526Z,32.63
2023-03-24T01:43:00.193Z,32.38
2023-03-24T01:44:24.416Z,32.38
2023-03-24T01:45:41.455Z,32.26
2023-03-24T01:46:43.316Z,32.45
2023-03-24T01:47:45.346Z,32.49
2023-03-24T01:49:06.606Z,32.44
2023-03-24T01:50:08.542Z,32.47
2023-03-24T01:51:30.644Z,32.35
2023-03-24T01:52:36.721Z,32.45
2023-03-24T01:53:47.536Z,32.56
2023-03-24T01:55:03.653Z,32.67
2023-03-24T01:56:07.669Z,32.46
2023-03-24T01:57:18.947Z,32.46
2023-03-24T01:58:25.248Z,32.37
2023-03-24T01:59:34.660Z,32.37
2023-03-24T02:00:37.967Z,32.43
2023-03-24T02:01:40.082Z,32.54
2023-03-24T02:02:54.965Z,32.57
2023-03-24T02:04:00.212Z,32.23
2023-03-24T02:05:12.085Z,32.52
2023-03-24T02:06:16.341Z,32.37
2023-03-24T02:08:12.922Z,32.41
2023-03-24T02:09:15.493Z,32.50
2023-03-24T02:10:20.458Z,32.38
2023-03-24T02:11:27.107Z,32.39
2023-03-24T02:12:32.187Z,32.55
2023-03-24T02:13:34.212Z,32.27
2023-03-24T02:14:36.449Z,32.57
2023-03-24T02:16:14.046Z,32.47
2023-03-24T02:17:41.024Z,32.43
2023-03-24T02:19:19.672Z,32.40
2023-03-24T02:20:51.956Z,32.36
2023-03-24T02:22:28.802Z,32.31
2023-03-24T02:23:50.109Z,32.42
2023-03-24T02:25:16.410Z,32.44
2023-03-24T02:27:02.263Z,32.42
2023-03-24T02:29:05.177Z,32.32
2023-03-24T02:30:28.325Z,32.41
2023-03-24T02:31:51.160Z,32.45
2023-03-24T02:33:32.634Z,32.41
2023-03-24T02:35:12.208Z,32.42
2023-03-24T02:36:26.278Z,32.64
2023-03-24T02:37:56.377Z,32.42
2023-03-24T02:39:42.669Z,32.51
2023-03-24T02:40:56.313Z,32.48
2023-03-24T02:42:32.285Z,32.41
2023-03-24T02:43:55.191Z,32.59
2023-03-24T02:45:29.625Z,32.40
2023-03-24T02:46:42.620Z,32.53
2023-03-24T02:48:41.541Z,32.45
2023-03-24T02:50:14.622Z,32.60
2023-03-24T02:52:12.925Z,32.49
2023-03-24T02:54:17.787Z,32.40
2023-03-24T02:55:40.785Z,32.55
2023-03-24T02:56:50.446Z,32.64
2023-03-24T02:58:08.299Z,32.67
2023-03-24T02:59:50.788Z,32.60
2023-03-24T03:01:05.590Z,32.73
2023-03-24T03:02:19.267Z,32.49
2023-03-24T03:03:38.354Z,32.69
2023-03-24T03:04:52.411Z,32.69
2023-03-24T03:06:07.167Z,32.65
2023-03-24T03:07:12.744Z,32.63
2023-03-24T03:08:21.527Z,32.52
2023-03-24T03:09:26.700Z,32.68
2023-03-24T03:10:36.469Z,32.80
2023-03-24T03:11:48.094Z,32.68
2023-03-24T03:12:57.282Z,32.46
2023-03-24T03:14:25.876Z,32.53
2023-03-24T03:15:39.728Z,32.60
2023-03-24T03:16:59.970Z,32.51
2023-03-24T03:18:22.895Z,32.56
2023-03-24T03:19:52.675Z,32.42
2023-03-24T03:21:02.077Z,32.44
2023-03-24T03:22:12.121Z,32.57
2023-03-24T03:23:19.026Z,32.48
2023-03-24T03:24:39.109Z,32.36
2023-03-24T03:25:50.292Z,32.42
2023-03-24T03:26:57.461Z,32.53
2023-03-24T03:28:03.658Z,32.82
2023-03-24T03:29:22.150Z,32.69
2023-03-24T03:30:41.777Z,32.61
2023-03-24T03:31:53.406Z,32.48
2023-03-24T03:33:25.122Z,32.32
2023-03-24T03:34:47.064Z,32.45
2023-03-24T03:35:59.222Z,32.25
2023-03-24T03:37:11.101Z,32.38
2023-03-24T03:38:31.473Z,32.58
2023-03-24T03:39:40.796Z,32.31
2023-03-24T03:40:52.752Z,32.61
2023-03-24T03:41:56.002Z,32.29
2023-03-24T03:42:58.568Z,32.65
2023-03-24T03:44:01.407Z,32.33
2023-03-24T03:45:03.931Z,32.67
2023-03-24T03:46:07.298Z,32.38
2023-03-24T03:47:09.353Z,32.41
2023-03-24T03:48:11.650Z,32.40
2023-03-24T03:49:13.698Z,32.66
2023-03-24T03:50:15.959Z,32.43
2023-03-24T03:51:18.375Z,32.69
2023-03-24T03:52:21.750Z,32.62
2023-03-24T03:53:31.737Z,32.61
2023-03-24T03:54:36.124Z,32.63
2023-03-24T03:55:38.282Z,32.31
2023-03-24T03:56:41.945Z,32.54
2023-03-24T03:57:44.668Z,32.50
2023-03-24T03:58:48.496Z,32.68
2023-03-24T03:59:50.368Z,32.46
2023-03-24T04:00:57.688Z,32.67
2023-03-24T04:02:26.854Z,32.47
2023-03-24T04:04:09.085Z,32.37
2023-03-24T04:05:26.534Z,32.32
2023-03-24T04:06:50.397Z,32.37
2023-03-24T04:08:16.359Z,32.24
2023-03-24T04:09:46.951Z,32.54
2023-03-24T04:11:22.743Z,32.32
2023-03-24T04:12:57.288Z,32.57
2023-03-24T04:14:09.584Z,32.33
2023-03-24T04:15:40.461Z,32.42
2023-03-24T04:17:12.623Z,32.56
2023-03-24T04:18:40.151Z,32.40
2023-03-24T04:20:15.089Z,32.36
2023-03-24T04:21:48.554Z,32.63
2023-03-24T04:23:14.865Z,32.53
2023-03-24T04:24:40.240Z,32.55
2023-03-24T04:26:18.072Z,32.66
2023-03-24T04:27:46.534Z,32.35
2023-03-24T04:29:17.860Z,32.66
2023-03-24T04:30:47.774Z,32.28
2023-03-24T04:32:11.342Z,32.49
2023-03-24T04:33:22.597Z,32.69
2023-03-24T04:34:36.042Z,32.53
2023-03-24T04:35:46.505Z,32.58
2023-03-24T04:37:02.713Z,32.73
2023-03-24T04:38:13.003Z,32.65
2023-03-24T04:39:28.080Z,32.75
2023-03-24T04:40:34.287Z,32.74
2023-03-24T04:41:37.796Z,32.69
2023-03-24T04:42:49.073Z,32.78
2023-03-24T04:43:53.197Z,32.72
2023-03-24T04:44:57.795Z,32.37
2023-03-24T04:45:59.710Z,32.58
2023-03-24T04:47:04.728Z,32.52
2023-03-24T04:48:10.844Z,32.63
2023-03-24T04:49:12.698Z,32.70
2023-03-24T04:50:14.775Z,32.59
2023-03-24T04:51:20.549Z,32.45
2023-03-24T04:52:22.356Z,32.65
2023-03-24T04:53:24.946Z,32.48
2023-03-24T04:54:28.002Z,32.57
2023-03-24T04:55:50.986Z,32.75
2023-03-24T04:56:56.935Z,32.72
2023-03-24T04:57:59.114Z,32.73
2023-03-24T04:59:01.016Z,32.56
2023-03-24T05:00:08.210Z,32.79
2023-03-24T05:01:10.195Z,32.71
2023-03-24T05:02:12.444Z,32.64
2023-03-24T05:03:16.118Z,32.94
2023-03-24T05:04:23.916Z,32.96
2023-03-24T05:05:25.822Z,32.62
2023-03-24T05:06:27.696Z,32.55
2023-03-24T05:07:29.556Z,32.59
2023-03-24T05:08:31.793Z,32.78
2023-03-24T05:09:33.791Z,32.57
2023-03-24T05:10:36.580Z,32.77
2023-03-24T05:11:38.379Z,32.82
2023-03-24T05:12:40.144Z,32.70
2023-03-24T05:13:41.924Z,32.52
2023-03-24T05:14:43.690Z,32.58
2023-03-24T05:15:46.478Z,32.62
2023-03-24T05:16:48.625Z,32.71
2023-03-24T05:17:51.814Z,32.74
2023-03-24T05:18:53.687Z,32.75
2023-03-24T05:19:55.421Z,32.78
2023-03-24T05:20:57.339Z,32.57
2023-03-24T05:21:59.168Z,32.47
2023-03-24T05:23:01.848Z,32.71
2023-03-24T05:24:04.048Z,32.63
2023-03-24T05:25:06.692Z,32.85
2023-03-24T05:26:09.310Z,32.91
2023-03-24T05:27:11.201Z,32.89
2023-03-24T05:28:12.978Z,33.02
2023-03-24T05:29:14.803Z,33.07
2023-03-24T05:30:17.529Z,32.86
2023-03-24T05:31:19.534Z,32.98
2023-03-24T05:32:21.329Z,32.92
2023-03-24T05:33:23.306Z,32.81
2023-03-24T05:34:25.350Z,32.86
2023-03-24T05:35:27.200Z,32.96
2023-03-24T05:36:29.006Z,32.90
2023-03-24T05:37:31.148Z,32.80
2023-03-24T05:38:32.955Z,32.70
2023-03-24T05:39:34.698Z,32.85
2023-03-24T05:40:37.407Z,32.98
2023-03-24T05:41:39.221Z,33.00
2023-03-24T05:42:41.355Z,32.96
2023-03-24T05:43:43.130Z,32.92
2023-03-24T05:44:45.782Z,32.88
2023-03-24T05:45:47.925Z,32.88
2023-03-24T05:46:50.065Z,32.70
2023-03-24T05:47:52.073Z,32.58
2023-03-24T05:48:53.898Z,32.53
2023-03-24T05:49:55.698Z,32.59
2023-03-24T05:50:57.552Z,32.64
2023-03-24T05:52:00.311Z,32.55
2023-03-24T05:53:02.131Z,32.39
2023-03-24T05:54:06.036Z,32.58
2023-03-24T05:55:09.456Z,32.30
2023-03-24T05:56:11.960Z,32.53
2023-03-24T05:57:16.544Z,32.47
2023-03-24T05:58:19.987Z,32.53
2023-03-24T05:59:22.868Z,32.34
2023-03-24T06:00:24.731Z,32.42
2023-03-24T06:01:28.841Z,32.20
2023-03-24T06:02:30.705Z,32.23
2023-03-24T06:03:34.685Z,32.22
2023-03-24T06:04:36.992Z,32.44
2023-03-24T06:05:38.878Z,32.54
2023-03-24T06:06:41.068Z,32.29
2023-03-24T06:07:43.384Z,32.34
2023-03-24T06:08:45.329Z,32.17
2023-03-24T06:09:47.505Z,32.40
2023-03-24T06:10:49.576Z,32.44
2023-03-24T06:11:51.474Z,32.32
2023-03-24T06:12:55.373Z,32.32
2023-03-24T06:14:00.119Z,32.34
2023-03-24T06:15:02.076Z,32.08
2023-03-24T06:16:04.166Z,32.44
2023-03-24T06:17:08.370Z,32.33
2023-03-24T06:18:10.171Z,32.40
2023-03-24T06:19:11.936Z,32.23
2023-03-24T06:20:18.602Z,32.36
2023-03-24T06:21:22.029Z,32.20
2023-03-24T06:22:24.119Z,32.29
2023-03-24T06:23:28.249Z,32.33
2023-03-24T06:24:30.522Z,32.42
2023-03-24T06:25:33.625Z,32.56
2023-03-24T06:26:35.475Z,32.51
2023-03-24T06:27:38.086Z,32.72
2023-03-24T06:28:42.198Z,32.96
2023-03-24T06:29:44.054Z,32.96
2023-03-24T06:30:47.494Z,32.80
2023-03-24T06:31:49.370Z,32.82
2023-03-24T06:32:51.246Z,32.99
2023-03-24T06:33:53.663Z,32.62
2023-03-24T06:34:55.639Z,32.47
2023-03-24T06:35:57.613Z,32.66
2023-03-24T06:36:59.528Z,32.68
2023-03-24T06:38:01.504Z,32.67
2023-03-24T06:39:05.985Z,32.49
2023-03-24T06:40:11.190Z,32.41
2023-03-24T06:41:13.257Z,32.62
2023-03-24T06:42:16.017Z,32.48
2023-03-24T06:43:17.801Z,32.54
2023-03-24T06:44:19.629Z,32.59
2023-03-24T06:45:21.472Z,32.60
2023-03-24T06:46:24.081Z,32.54
2023-03-24T06:47:26.041Z,32.37
2023-03-24T06:48:28.288Z,32.69
2023-03-24T06:49:30.206Z,32.60
2023-03-24T06:50:34.562Z,32.54
2023-03-24T06:51:36.341Z,32.59
2023-03-24T06:52:38.407Z,32.42
2023-03-24T06:53:41.305Z,32.58
2023-03-24T06:54:43.135Z,32.60
2023-03-24T06:55:45.188Z,32.42
2023-03-24T06:56:47.213Z,32.50
2023-03-24T06:57:49.088Z,32.93
2023-03-24T06:58:51.563Z,32.96
2023-03-24T06:59:53.418Z,32.81
2023-03-24T07:00:55.275Z,33.12
2023-03-24T07:01:57.112Z,33.70
2023-03-24T07:02:59.103Z,33.60
2023-03-24T07:04:01.308Z,33.50
2023-03-24T07:05:09.580Z,33.78
2023-03-24T07:06:11.564Z,33.36
2023-03-24T07:07:41.466Z,33.35
2023-03-24T07:08:38.595Z,33.11
2023-03-24T07:09:40.686Z,33.25
2023-03-24T07:10:43.333Z,33.04
2023-03-24T07:11:45.501Z,33.14
2023-03-24T07:12:48.264Z,33.17
2023-03-24T07:13:50.256Z,33.04
2023-03-24T07:14:52.126Z,33.18
2023-03-24T07:15:54.268Z,33.03
2023-03-24T07:16:56.270Z,33.12
2023-03-24T07:17:58.201Z,33.14
2023-03-24T07:19:01.135Z,33.30
2023-03-24T07:20:07.951Z,33.15
2023-03-24T07:21:09.854Z,33.19
2023-03-24T07:22:12.357Z,33.22
2023-03-24T07:23:14.779Z,33.36
2023-03-24T07:24:17.744Z,33.35
2023-03-24T07:25:20.127Z,33.35
2023-03-24T07:26:22.035Z,33.31
2023-03-24T07:27:23.858Z,33.40
2023-03-24T07:28:26.451Z,33.41
2023-03-24T07:29:28.379Z,33.41
2023-03-24T07:30:39.319Z,33.31
2023-03-24T07:31:42.090Z,33.40
2023-03-24T07:32:44.018Z,33.56
2023-03-24T07:33:46.306Z,33.39
2023-03-24T07:34:49.672Z,33.38
2023-03-24T07:35:57.098Z,33.56
2023-03-24T07:37:00.695Z,33.42
2023-03-24T07:38:03.785Z,33.30
2023-03-24T07:39:05.563Z,33.46
2023-03-24T07:40:11.761Z,33.54
2023-03-24T07:41:13.485Z,33.49
2023-03-24T07:42:15.225Z,33.50
2023-03-24T07:43:17.162Z,33.42
2023-03-24T07:44:19.095Z,33.48
2023-03-24T07:45:20.972Z,33.58
2023-03-24T07:46:22.938Z,33.44
2023-03-24T07:47:26.082Z,33.37
2023-03-24T07:48:29.381Z,33.55
2023-03-24T07:49:31.421Z,33.32
2023-03-24T07:50:33.451Z,33.42
2023-03-24T07:51:38.544Z,33.31
2023-03-24T07:52:47.072Z,33.18
2023-03-24T07:53:48.937Z,33.39
2023-03-24T07:54:50.760Z,33.34
2023-03-24T07:55:52.844Z,33.17
2023-03-24T07:56:54.868Z,33.23
2023-03-24T07:57:56.743Z,33.28
2023-03-24T07:58:58.608Z,33.33
2023-03-24T08:00:00.759Z,33.23
2023-03-24T08:01:02.663Z,33.13
2023-03-24T08:02:05.207Z,33.07
2023-03-24T08:03:09.548Z,33.16
2023-03-24T08:04:14.449Z,33.06
2023-03-24T08:05:18.378Z,33.21
2023-03-24T08:06:20.499Z,33.05
2023-03-24T08:07:22.267Z,33.24
2023-03-24T08:08:24.173Z,32.99
2023-03-24T08:09:26.154Z,32.89
2023-03-24T08:10:30.833Z,33.16
2023-03-24T08:11:32.943Z,33.05
2023-03-24T08:12:34.742Z,33.03
2023-03-24T08:13:36.555Z,33.09
2023-03-24T08:14:38.334Z,32.97
2023-03-24T08:15:40.324Z,32.94
2023-03-24T08:16:42.257Z,33.06
2023-03-24T08:17:44.760Z,32.91
2023-03-24T08:18:48.621Z,32.90
2023-03-24T08:20:00.012Z,32.84
2023-03-24T08:21:03.697Z,32.83
2023-03-24T08:22:05.495Z,32.77
2023-03-24T08:23:08.410Z,32.77
2023-03-24T08:24:10.296Z,32.79
2023-03-24T08:25:13.109Z,32.76
2023-03-24T08:26:15.208Z,32.74
2023-03-24T08:27:17.333Z,32.84
2023-03-24T08:28:19.515Z,32.79
2023-03-24T08:29:21.291Z,32.83
2023-03-24T08:30:28.092Z,32.61
2023-03-24T08:31:35.734Z,32.77
2023-03-24T08:32:38.201Z,32.77
2023-03-24T08:33:40.452Z,32.81
2023-03-24T08:34:42.376Z,32.78
2023-03-24T08:35:46.643Z,32.92
2023-03-24T08:36:49.006Z,32.66
2023-03-24T08:37:51.609Z,32.85
2023-03-24T08:38:55.621Z,32.76
2023-03-24T08:39:58.907Z,32.65
2023-03-24T08:41:06.573Z,32.86
2023-03-24T08:42:08.448Z,32.64
2023-03-24T08:43:15.624Z,32.68
2023-03-24T08:44:17.613Z,32.69
2023-03-24T08:45:22.226Z,32.58
2023-03-24T08:46:24.125Z,32.61
2023-03-24T08:47:26.328Z,32.57
2023-03-24T08:48:30.455Z,32.49
2023-03-24T08:49:32.281Z,32.71
2023-03-24T08:50:38.780Z,32.73
2023-03-24T08:51:41.146Z,32.94
2023-03-24T08:52:42.980Z,32.71
2023-03-24T08:53:44.967Z,32.79
2023-03-24T08:54:47.023Z,32.97
2023-03-24T08:55:49.160Z,32.54
2023-03-24T08:56:51.265Z,32.88
2023-03-24T08:57:53.595Z,32.78
2023-03-24T08:58:55.533Z,32.61
2023-03-24T08:59:57.585Z,32.70
2023-03-24T09:00:59.455Z,32.75
2023-03-24T09:02:01.732Z,32.55
2023-03-24T09:03:03.705Z,32.44
2023-03-24T09:04:05.661Z,32.70
2023-03-24T09:05:08.171Z,32.78
2023-03-24T09:06:10.589Z,32.49
2023-03-24T09:07:12.933Z,32.64
2023-03-24T09:08:17.976Z,32.89
2023-03-24T09:09:19.764Z,32.66
2023-03-24T09:10:22.616Z,32.81
2023-03-24T09:11:24.859Z,32.69
2023-03-24T09:12:26.861Z,32.70
2023-03-24T09:13:28.863Z,32.71
2023-03-24T09:14:30.977Z,32.85
2023-03-24T09:15:33.392Z,32.69
2023-03-24T09:16:35.248Z,32.72
2023-03-24T09:17:38.064Z,32.74
2023-03-24T09:18:40.313Z,32.67
2023-03-24T09:19:43.364Z,33.00
2023-03-24T09:20:46.749Z,32.91
2023-03-24T09:21:49.151Z,32.62
2023-03-24T09:22:51.270Z,32.77
2023-03-24T09:23:53.112Z,32.64
2023-03-24T09:24:54.877Z,32.50
2023-03-24T09:25:57.197Z,32.70
2023-03-24T09:26:58.994Z,32.91
2023-03-24T09:28:01.687Z,32.59
2023-03-24T09:29:04.029Z,32.96
2023-03-24T09:30:07.946Z,32.90
2023-03-24T09:31:10.655Z,33.04
2023-03-24T09:32:12.533Z,32.81
2023-03-24T09:33:14.428Z,32.94
2023-03-24T09:34:16.581Z,32.87
2023-03-24T09:35:18.496Z,33.06
2023-03-24T09:36:23.297Z,32.79
2023-03-24T09:37:25.566Z,33.00
2023-03-24T09:38:28.349Z,33.14
2023-03-24T09:39:30.179Z,32.91
2023-03-24T09:40:37.907Z,32.97
2023-03-24T09:41:45.613Z,32.99
2023-03-24T09:42:58.125Z,33.02
2023-03-24T09:44:27.420Z,33.03
2023-03-24T09:45:36.629Z,33.11
2023-03-24T09:46:47.733Z,33.05
2023-03-24T09:47:58.820Z,33.16
2023-03-24T09:49:00.845Z,33.16
2023-03-24T09:50:17.847Z,33.09
2023-03-24T09:51:23.811Z,32.92
2023-03-24T09:52:39.975Z,33.20
2023-03-24T09:54:05.683Z,32.97
2023-03-24T09:55:17.738Z,33.19
2023-03-24T09:56:23.589Z,33.18
2023-03-24T09:57:30.680Z,33.09
2023-03-24T09:58:33.746Z,33.31
2023-03-24T09:59:39.742Z,33.06
2023-03-24T10:00:43.040Z,33.15
2023-03-24T10:01:46.077Z,33.35
2023-03-24T10:02:51.062Z,33.30
2023-03-24T10:03:59.190Z,33.34
2023-03-24T10:05:01.345Z,33.33
2023-03-24T10:06:23.013Z,33.32
2023-03-24T10:07:49.291Z,33.36
2023-03-24T10:09:27.207Z,33.31
2023-03-24T10:11:20.000Z,33.35
2023-03-24T10:12:38.383Z,33.32
2023-03-24T10:14:10.538Z,33.32
2023-03-24T10:15:41.205Z,33.41
2023-03-24T10:17:18.136Z,33.30
2023-03-24T10:19:04.750Z,33.30
2023-03-24T10:20:34.591Z,33.34
2023-03-24T10:21:43.801Z,33.54
2023-03-24T10:22:53.121Z,33.41
2023-03-24T10:24:17.138Z,33.36
2023-03-24T10:25:37.493Z,33.49
2023-03-24T10:26:52.660Z,33.48
2023-03-24T10:28:18.650Z,33.53
2023-03-24T10:29:31.026Z,33.50
2023-03-24T10:30:41.413Z,33.68
2023-03-24T10:31:53.029Z,33.41
2023-03-24T10:32:55.043Z,33.52
2023-03-24T10:33:57.737Z,33.58
2023-03-24T10:35:09.861Z,33.67
2023-03-24T10:36:18.132Z,33.51
2023-03-24T10:37:21.117Z,33.57
2023-03-24T10:38:24.132Z,33.50
2023-03-24T10:39:38.081Z,33.59
2023-03-24T10:40:47.745Z,33.44
2023-03-24T10:41:51.568Z,33.41
2023-03-24T10:43:07.143Z,33.39
2023-03-24T10:44:14.087Z,33.33
2023-03-24T10:45:32.746Z,33.31
2023-03-24T10:46:38.263Z,33.10
2023-03-24T10:47:42.626Z,33.16
2023-03-24T10:48:49.725Z,33.12
2023-03-24T10:49:57.993Z,32.95
2023-03-24T10:51:00.228Z,33.17
2023-03-24T10:52:09.380Z,33.12
2023-03-24T10:53:21.091Z,33.29
2023-03-24T10:54:26.423Z,33.38
2023-03-24T10:55:43.563Z,33.41
2023-03-24T10:57:03.724Z,33.24
2023-03-24T10:58:29.267Z,33.29
2023-03-24T10:59:47.054Z,33.24
2023-03-24T11:00:49.575Z,33.42
2023-03-24T11:02:00.675Z,33.45
2023-03-24T11:03:08.550Z,33.46
2023-03-24T11:04:16.632Z,33.45
2023-03-24T11:05:29.593Z,33.49
2023-03-24T11:06:32.460Z,33.50
2023-03-24T11:07:48.913Z,33.59
2023-03-24T11:09:19.509Z,33.53
2023-03-24T11:10:26.057Z,33.46
2023-03-24T11:11:32.095Z,33.67
2023-03-24T11:12:44.160Z,33.56
2023-03-24T11:13:57.577Z,33.74
2023-03-24T11:15:29.265Z,33.55
2023-03-24T11:16:38.835Z,33.50
2023-03-24T11:17:42.362Z,33.52
2023-03-24T11:18:57.218Z,33.71
2023-03-24T11:19:59.151Z,33.66
2023-03-24T11:21:05.220Z,33.72
2023-03-24T11:22:08.780Z,33.73
2023-03-24T11:23:10.615Z,33.73
2023-03-24T11:24:20.159Z,33.35
2023-03-24T11:25:33.813Z,33.69
2023-03-24T11:26:39.231Z,33.53
2023-03-24T11:27:45.417Z,33.76
2023-03-24T11:28:54.733Z,33.55
2023-03-24T11:29:56.601Z,33.66
2023-03-24T11:31:07.964Z,33.58
2023-03-24T11:32:19.809Z,33.72
2023-03-24T11:33:35.707Z,33.52
2023-03-24T11:34:48.876Z,33.85
2023-03-24T11:35:59.463Z,33.71
2023-03-24T11:37:24.711Z,33.53
2023-03-24T11:38:34.910Z,33.65
2023-03-24T11:39:36.821Z,33.59
2023-03-24T11:40:52.117Z,33.59
2023-03-24T11:42:12.095Z,33.36
2023-03-24T11:43:21.410Z,33.12
2023-03-24T11:44:26.041Z,33.52
2023-03-24T11:45:35.604Z,33.28
2023-03-24T11:46:42.067Z,33.52
2023-03-24T11:47:44.360Z,33.22
2023-03-24T11:48:58.781Z,33.17
2023-03-24T11:50:09.561Z,33.17
2023-03-24T11:51:23.232Z,33.13
2023-03-24T11:52:32.489Z,33.09
2023-03-24T11:53:52.417Z,33.16
2023-03-24T11:54:54.359Z,33.02
2023-03-24T11:56:22.257Z,32.93
2023-03-24T11:57:59.709Z,33.00
2023-03-24T11:59:44.906Z,32.82
2023-03-24T12:01:06.295Z,33.00
2023-03-24T12:02:08.011Z,33.00
2023-03-24T12:03:29.969Z,32.86
2023-03-24T12:04:56.564Z,32.75
2023-03-24T12:06:29.660Z,32.72
2023-03-24T12:07:46.523Z,33.00
2023-03-24T12:09:00.451Z,32.95
2023-03-24T12:10:57.962Z,32.96
2023-03-24T12:12:21.207Z,32.84
2023-03-24T12:13:49.636Z,33.02
2023-03-24T12:15:26.599Z,32.78
2023-03-24T12:17:03.608Z,32.80
2023-03-24T12:18:15.783Z,32.95
2023-03-24T12:19:29.700Z,33.00
2023-03-24T12:21:12.480Z,32.70
2023-03-24T12:22:46.663Z,32.81
2023-03-24T12:24:20.076Z,32.94
2023-03-24T12:25:59.992Z,33.08
2023-03-24T12:27:01.983Z,32.98
2023-03-24T12:28:09.386Z,32.90
2023-03-24T12:29:59.889Z,32.88
2023-03-24T12:31:22.760Z,32.99
2023-03-24T12:32:57.519Z,33.07
2023-03-24T12:34:11.059Z,33.17
2023-03-24T12:35:52.149Z,33.10
2023-03-24T12:37:23.153Z,33.37
2023-03-24T12:39:09.776Z,33.20
2023-03-24T12:40:40.229Z,33.58
2023-03-24T12:41:59.783Z,33.35
2023-03-24T12:43:32.153Z,33.40
2023-03-24T12:45:07.813Z,33.43
2023-03-24T12:46:47.595Z,33.42
2023-03-24T12:48:43.456Z,33.34
2023-03-24T12:49:54.094Z,33.54
2023-03-24T12:51:33.188Z,33.58
2023-03-24T12:52:38.110Z,33.64
2023-03-24T12:54:18.781Z,33.58
2023-03-24T12:55:40.343Z,33.68
2023-03-24T12:56:48.649Z,33.83
2023-03-24T12:58:04.089Z,33.94
2023-03-24T12:59:43.970Z,33.72
2023-03-24T13:01:04.494Z,33.98
2023-03-24T13:02:33.731Z,33.89
2023-03-24T13:03:46.845Z,34.06
2023-03-24T13:04:54.060Z,34.01
2023-03-24T13:06:16.209Z,34.04
2023-03-24T13:07:25.724Z,34.04
2023-03-24T13:08:30.407Z,34.06
2023-03-24T13:10:01.706Z,33.85
2023-03-24T13:11:21.854Z,34.25
2023-03-24T13:12:45.033Z,34.00
2023-03-24T13:13:49.874Z,34.24
2023-03-24T13:15:07.167Z,34.24
2023-03-24T13:16:26.984Z,34.37
2023-03-24T13:17:54.420Z,34.46
2023-03-24T13:19:03.173Z,34.40
2023-03-24T13:20:13.493Z,34.38
2023-03-24T13:21:28.497Z,34.21
2023-03-24T13:22:32.246Z,34.34
2023-03-24T13:24:09.164Z,34.41
2023-03-24T13:25:56.307Z,34.50
2023-03-24T13:27:40.083Z,34.50
2023-03-24T13:29:22.979Z,34.51
2023-03-24T13:30:35.238Z,34.42
2023-03-24T13:32:09.036Z,34.17
2023-03-24T13:33:20.617Z,34.54
2023-03-24T13:34:37.986Z,34.47
2023-03-24T13:36:10.153Z,34.40
2023-03-24T13:37:25.463Z,34.47
2023-03-24T13:38:48.269Z,34.67
2023-03-24T13:39:59.812Z,34.76
2023-03-24T13:41:11.097Z,34.59
2023-03-24T13:42:33.169Z,34.50
2023-03-24T13:43:35.163Z,34.57
2023-03-24T13:44:44.319Z,34.60
2023-03-24T13:45:48.164Z,34.61
2023-03-24T13:47:13.120Z,34.45
2023-03-24T13:48:38.767Z,34.49
2023-03-24T13:49:52.273Z,34.73
2023-03-24T13:51:14.341Z,34.50
2023-03-24T13:52:49.624Z,34.57
2023-03-24T13:53:59.621Z,34.48
2023-03-24T13:55:10.357Z,34.51
2023-03-24T13:56:24.772Z,34.40
2023-03-24T13:57:27.994Z,34.50
2023-03-24T13:59:11.274Z,34.42
2023-03-24T14:00:26.365Z,34.42
2023-03-24T14:01:43.936Z,34.29
2023-03-24T14:03:12.135Z,34.32
2023-03-24T14:04:25.626Z,34.30
2023-03-24T14:05:41.173Z,34.40
2023-03-24T14:06:58.927Z,34.32
2023-03-24T14:08:01.075Z,34.42
2023-03-24T14:09:06.227Z,34.46
2023-03-24T14:10:19.040Z,34.54
2023-03-24T14:11:38.212Z,34.42
2023-03-24T14:13:04.795Z,34.30
2023-03-24T14:14:27.752Z,34.39
2023-03-24T14:15:33.755Z,34.48
2023-03-24T14:16:50.229Z,34.46
2023-03-24T14:17:56.739Z,34.27
2023-03-24T14:19:31.973Z,34.28
2023-03-24T14:20:38.858Z,34.19
2023-03-24T14:21:41.529Z,34.31
2023-03-24T14:22:48.385Z,34.26
2023-03-24T14:23:53.080Z,34.35
2023-03-24T14:25:27.731Z,34.40
2023-03-24T14:26:34.877Z,34.24
2023-03-24T14:27:44.068Z,34.46
2023-03-24T14:28:53.868Z,34.15
2023-03-24T14:30:02.885Z,34.45
2023-03-24T14:31:15.501Z,34.30
2023-03-24T14:32:22.862Z,34.39
2023-03-24T14:33:26.803Z,34.37
2023-03-24T14:34:29.963Z,34.54
2023-03-24T14:36:01.624Z,34.29
2023-03-24T14:37:08.265Z,34.33
2023-03-24T14:38:16.104Z,34.35
2023-03-24T14:39:44.242Z,34.19
2023-03-24T14:40:50.881Z,34.40
2023-03-24T14:41:53.646Z,34.30
2023-03-24T14:43:22.726Z,34.26
2023-03-24T14:44:59.428Z,34.24
2023-03-24T14:46:05.096Z,34.29
2023-03-24T14:47:07.353Z,34.40
2023-03-24T14:49:05.326Z,34.30
2023-03-24T14:50:21.947Z,34.35
2023-03-24T14:51:36.815Z,34.30
2023-03-24T14:52:50.205Z,34.20
2023-03-24T14:53:57.795Z,34.49
2023-03-24T14:55:09.977Z,34.37
2023-03-24T14:56:17.464Z,34.24
2023-03-24T14:57:27.491Z,34.29
2023-03-24T14:58:38.992Z,34.07
2023-03-24T15:00:23.316Z,33.94
2023-03-24T15:01:33.635Z,33.91
2023-03-24T15:02:48.321Z,33.89
2023-03-24T15:04:07.658Z,33.99
2023-03-24T15:05:29.696Z,33.78
2023-03-24T15:06:33.210Z,33.76